Time;durP1;ratioP1;P1;durP2;ratioP2;P2;SDS_P1;SDS_P2;PMS_P1;PMS_P2;Temp;Humidity;BMP_temperature;BMP_pressure;BME280_temperature;BME280_humidity;BME280_pressure;Samples;Min_cycle;Max_cycle;Signal;HPM_P1;HPM_P2
2022/07/31 00:01:16;;;;;;;2.83;1.80;;;;;;;19.28;94.38;101748.47;5090741;28;20048;-32
2022/07/31 00:03:45;;;;;;;3.30;1.77;;;;;;;19.28;94.28;101749.31;5092286;28;20047;-31
2022/07/31 00:06:13;;;;;;;3.85;1.88;;;;;;;19.26;94.39;101747.97;5091661;28;20036;-31
2022/07/31 00:08:41;;;;;;;5.00;2.67;;;;;;;19.24;94.88;101739.81;5091327;28;20054;-31
2022/07/31 00:11:10;;;;;;;4.68;2.63;;;;;;;19.21;96.11;101742.47;5091676;28;20040;-37
2022/07/31 00:13:38;;;;;;;5.07;2.90;;;;;;;19.18;95.94;101737.53;5091848;28;20523;-30
2022/07/31 00:16:24;;;;;;;2.83;2.05;;;;;;;19.15;96.50;101735.38;5091232;28;20044;-31
2022/07/31 00:18:54;;;;;;;4.07;2.75;;;;;;;19.14;96.59;101733.69;5092097;28;20051;-37
2022/07/31 00:21:21;;;;;;;4.97;2.90;;;;;;;19.12;97.21;101724.72;5090867;28;20040;-33
2022/07/31 00:23:49;;;;;;;4.20;2.90;;;;;;;19.09;97.87;101719.72;5091912;28;20048;-36
2022/07/31 00:26:17;;;;;;;5.07;3.08;;;;;;;19.02;98.94;101719.38;5091448;28;20058;-31
2022/07/31 00:28:46;;;;;;;4.75;3.40;;;;;;;18.98;99.71;101712.75;5090794;28;20501;-37
2022/07/31 00:31:14;;;;;;;5.97;2.70;;;;;;;18.95;99.83;101719.09;5091673;28;20166;-35
2022/07/31 00:33:42;;;;;;;4.57;2.83;;;;;;;18.91;100.00;101714.09;5089569;28;20048;-33
2022/07/31 00:36:11;;;;;;;5.15;3.08;;;;;;;18.91;100.00;101710.44;5089438;28;20058;-31
2022/07/31 00:38:38;;;;;;;5.28;3.53;;;;;;;18.86;100.00;101708.59;5091564;28;20054;-31
2022/07/31 00:41:06;;;;;;;5.38;3.63;;;;;;;18.84;100.00;101698.78;5091602;28;20078;-33
2022/07/31 00:43:34;;;;;;;4.53;2.72;;;;;;;18.82;100.00;101707.59;5087302;28;20068;-33
2022/07/31 00:46:02;;;;;;;5.85;2.78;;;;;;;18.81;100.00;101707.94;5091415;28;20044;-34
2022/07/31 00:48:31;;;;;;;4.53;3.00;;;;;;;18.79;100.00;101705.44;5090050;28;20086;-33
2022/07/31 00:51:00;;;;;;;4.75;2.80;;;;;;;18.78;100.00;101700.16;5090848;28;20135;-32
2022/07/31 00:53:29;;;;;;;3.25;2.20;;;;;;;18.77;100.00;101701.31;5091224;28;20400;-30
2022/07/31 00:55:57;;;;;;;5.53;3.70;;;;;;;18.76;100.00;101702.47;5090262;28;20048;-39
2022/07/31 00:58:25;;;;;;;7.55;2.85;;;;;;;18.74;100.00;101697.16;5089277;28;20102;-30
2022/07/31 01:00:52;;;;;;;6.32;3.67;;;;;;;18.74;100.00;101699.97;5070029;28;20052;-32
2022/07/31 01:03:21;;;;;;;6.85;3.50;;;;;;;18.73;100.00;101703.97;5085676;28;20059;-31
2022/07/31 01:05:49;;;;;;;4.40;3.33;;;;;;;18.73;100.00;101694.66;5090604;28;20488;-32
2022/07/31 01:08:17;;;;;;;6.60;4.15;;;;;;;18.73;100.00;101695.50;5089907;28;20052;-30
2022/07/31 01:10:53;;;;;;;7.38;5.10;;;;;;;18.74;100.00;101685.84;5090681;28;20048;-32
2022/07/31 01:13:30;;;;;;;6.40;3.95;;;;;;;18.74;100.00;101680.19;5091327;28;20040;-37
2022/07/31 01:16:00;;;;;;;6.70;4.80;;;;;;;18.73;100.00;101689.84;5090030;28;20508;-34
2022/07/31 01:18:32;;;;;;;6.93;4.72;;;;;;;18.73;100.00;101678.53;5090197;28;20520;-33
2022/07/31 01:21:04;;;;;;;8.10;5.60;;;;;;;18.73;100.00;101667.22;5091477;28;20507;-31
2022/07/31 01:23:50;;;;;;;7.70;4.95;;;;;;;18.72;100.00;101665.56;5089702;28;20064;-42
2022/07/31 01:26:49;;;;;;;8.45;6.18;;;;;;;18.64;100.00;101663.56;5090670;28;20074;-34
2022/07/31 01:29:25;;;;;;;6.97;5.57;;;;;;;18.61;100.00;101658.56;5089887;28;20165;-37
2022/07/31 01:32:00;;;;;;;7.45;4.95;;;;;;;18.60;100.00;101673.84;5090329;28;20084;-34
2022/07/31 01:34:35;;;;;;;7.30;4.85;;;;;;;18.61;100.00;101672.69;5088730;28;20484;-35
2022/07/31 01:37:13;;;;;;;5.80;4.53;;;;;;;18.61;100.00;101671.88;5067413;28;20049;-34
2022/07/31 01:39:46;;;;;;;8.50;5.55;;;;;;;18.62;100.00;101668.69;5087406;28;20477;-30
2022/07/31 01:42:18;;;;;;;6.55;4.50;;;;;;;18.64;100.00;101672.03;5089889;28;20067;-34
2022/07/31 01:44:52;;;;;;;9.43;5.15;;;;;;;18.67;100.00;101668.53;5089494;28;20048;-40
2022/07/31 01:47:25;;;;;;;6.95;4.80;;;;;;;18.68;100.00;101677.84;5090963;28;20078;-35
2022/07/31 01:49:54;;;;;;;6.53;4.70;;;;;;;18.69;100.00;101677.53;5093384;28;20127;-32
2022/07/31 01:52:26;;;;;;;7.60;5.18;;;;;;;18.70;100.00;101670.69;5093141;28;20138;-32
2022/07/31 01:54:57;;;;;;;6.18;4.60;;;;;;;18.71;100.00;101663.88;5092417;28;20512;-31
2022/07/31 01:57:27;;;;;;;6.13;4.33;;;;;;;18.71;100.00;101661.06;5093119;28;20068;-31
2022/07/31 02:00:01;;;;;;;7.65;5.38;;;;;;;18.70;100.00;101648.09;5091095;28;20043;-37
2022/07/31 02:02:49;;;;;;;7.13;5.38;;;;;;;18.67;100.00;101640.28;5093200;28;20140;-29
2022/07/31 02:05:22;;;;;;;7.68;5.50;;;;;;;18.64;100.00;101638.09;5092920;28;20072;-30
2022/07/31 02:07:53;;;;;;;6.22;4.80;;;;;;;18.62;100.00;101634.78;5092032;28;20086;-34
2022/07/31 02:10:24;;;;;;;7.28;4.93;;;;;;;18.61;100.00;101635.94;5092560;28;20056;-30
2022/07/31 02:12:53;;;;;;;6.32;5.07;;;;;;;18.61;100.00;101635.13;5094378;28;20040;-30
2022/07/31 02:15:24;;;;;;;10.60;6.63;;;;;;;18.59;100.00;101632.63;5091949;28;20052;-33
2022/07/31 02:17:54;;;;;;;5.47;4.28;;;;;;;18.59;100.00;101630.63;5093016;28;20044;-32
2022/07/31 02:20:23;;;;;;;6.20;3.90;;;;;;;18.60;100.00;101625.81;5093511;28;20048;-35
2022/07/31 02:22:56;;;;;;;7.57;4.25;;;;;;;18.63;100.00;101621.47;5092938;28;20086;-38
2022/07/31 02:25:24;;;;;;;7.53;5.32;;;;;;;18.65;100.00;101628.47;5093793;28;20073;-31
2022/07/31 02:27:55;;;;;;;4.70;4.20;;;;;;;18.65;100.00;101625.63;5092055;28;20040;-30
2022/07/31 02:30:29;;;;;;;4.43;3.40;;;;;;;18.67;100.00;101617.66;5093629;28;20048;-36
2022/07/31 02:33:09;;;;;;;5.63;4.15;;;;;;;18.67;100.00;101605.50;5092498;28;20075;-32
2022/07/31 02:35:39;;;;;;;7.25;5.50;;;;;;;18.68;100.00;101607.16;5091264;28;20040;-30
2022/07/31 02:38:14;;;;;;;7.00;4.85;;;;;;;18.66;100.00;101599.03;5092579;28;20105;-30
2022/07/31 02:40:54;;;;;;;5.35;4.47;;;;;;;18.68;100.00;101604.34;5092130;28;20385;-32
2022/07/31 02:43:21;;;;;;;6.87;4.00;;;;;;;18.69;100.00;101606.00;5093085;28;20044;-32
2022/07/31 02:45:52;;;;;;;4.88;4.00;;;;;;;18.70;100.00;101602.00;5091804;28;20051;-32
2022/07/31 02:48:20;;;;;;;5.93;4.40;;;;;;;18.72;100.00;101597.69;5092305;28;20055;-33
2022/07/31 02:50:52;;;;;;;5.22;4.38;;;;;;;18.73;100.00;101592.88;5091264;28;20070;-40
2022/07/31 02:53:20;;;;;;;6.20;4.65;;;;;;;18.76;100.00;101589.38;5080909;28;20044;-34
2022/07/31 02:55:53;;;;;;;6.20;3.92;;;;;;;18.78;100.00;101596.34;5091107;28;20581;-33
2022/07/31 02:58:21;;;;;;;5.50;4.05;;;;;;;18.80;100.00;101593.16;5092364;28;20040;-31
2022/07/31 03:00:59;;;;;;;4.65;3.25;;;;;;;18.82;100.00;101594.47;5093160;28;20100;-32
2022/07/31 03:03:30;;;;;;;5.25;3.40;;;;;;;18.80;100.00;101588.34;5091208;28;20044;-38
2022/07/31 03:05:58;;;;;;;4.20;3.53;;;;;;;18.84;100.00;101588.50;5092899;28;20512;-32
2022/07/31 03:08:27;;;;;;;4.53;3.92;;;;;;;18.85;100.00;101585.34;5092883;28;20052;-31
2022/07/31 03:10:58;;;;;;;5.20;4.05;;;;;;;18.86;100.00;101591.81;5090736;28;20083;-31
2022/07/31 03:13:29;;;;;;;6.10;5.05;;;;;;;18.86;100.00;101587.00;5092116;28;20266;-41
2022/07/31 03:15:59;;;;;;;5.95;4.07;;;;;;;18.89;100.00;101591.16;5091688;28;20048;-31
2022/07/31 03:18:29;;;;;;;5.30;3.90;;;;;;;18.88;100.00;101579.00;5090753;28;20079;-33
2022/07/31 03:20:57;;;;;;;4.65;3.50;;;;;;;18.88;100.00;101579.00;5091542;28;20056;-30
2022/07/31 03:23:27;;;;;;;6.05;4.47;;;;;;;18.89;100.00;101572.19;5091124;28;20504;-39
2022/07/31 03:26:04;;;;;;;8.05;4.78;;;;;;;18.88;100.00;101567.69;5090745;28;20109;-34
2022/07/31 03:28:34;;;;;;;5.32;4.43;;;;;;;18.87;100.00;101565.19;5092567;28;20130;-31
2022/07/31 03:31:04;;;;;;;5.72;4.38;;;;;;;18.86;100.00;101564.38;5091606;28;20423;-32
2022/07/31 03:33:31;;;;;;;6.07;3.92;;;;;;;18.86;100.00;101563.53;5091769;28;20443;-34
2022/07/31 03:35:59;;;;;;;6.88;5.00;;;;;;;18.85;100.00;101571.19;5092407;28;20087;-37
2022/07/31 03:38:27;;;;;;;6.63;4.95;;;;;;;18.87;100.00;101568.84;5090362;28;20055;-37
2022/07/31 03:41:17;;;;;;;6.55;4.53;;;;;;;18.85;100.00;101561.88;5071082;28;20056;-38
2022/07/31 03:43:47;;;;;;;6.38;4.30;;;;;;;18.88;100.00;101567.69;5085827;28;20101;-36
2022/07/31 03:46:21;;;;;;;7.13;4.65;;;;;;;18.90;100.00;101568.19;5089868;28;20508;-37
2022/07/31 03:48:50;;;;;;;;;;;;;;;18.87;100.00;101562.38;5091174;28;20040;-35
2022/07/31 03:51:20;;;;;;;6.20;4.13;;;;;;;18.86;100.00;101560.72;5090863;28;19920;-31
2022/07/31 03:53:48;;;;;;;8.45;4.40;;;;;;;18.96;100.00;101551.88;5091264;28;20040;-36
2022/07/31 03:56:36;;;;;;;8.88;3.38;;;;;;;19.05;100.00;101555.47;5091981;28;20062;-31
2022/07/31 03:59:04;;;;;;;5.90;2.75;;;;;;;19.17;100.00;101557.59;5090338;28;20515;-31
2022/07/31 04:01:35;;;;;;;7.65;2.92;;;;;;;19.25;100.00;101542.56;5091397;28;20505;-34
2022/07/31 04:04:34;;;;;;;6.63;2.40;;;;;;;19.32;100.00;101544.84;5090655;28;20040;-32
2022/07/31 04:07:04;;;;;;;8.02;2.80;;;;;;;19.38;100.00;101552.81;5089552;28;20047;-31
2022/07/31 04:09:32;;;;;;;5.95;2.17;;;;;;;19.44;100.00;101562.75;5090577;28;20055;-32
2022/07/31 04:12:02;;;;;;;5.68;2.00;;;;;;;19.48;100.00;101560.06;5090842;28;20044;-35
2022/07/31 04:14:30;;;;;;;4.53;2.17;;;;;;;19.53;100.00;101548.59;5089758;28;20493;-37
2022/07/31 04:16:59;;;;;;;6.20;2.40;;;;;;;19.58;100.00;101543.53;5090501;28;20063;-31
2022/07/31 04:19:29;;;;;;;7.93;3.08;;;;;;;19.63;100.00;101541.69;5090400;28;20039;-36
2022/07/31 04:21:57;;;;;;;5.70;2.40;;;;;;;19.66;100.00;101553.16;5089716;28;20109;-32
2022/07/31 04:24:25;;;;;;;6.97;2.42;;;;;;;19.69;100.00;101541.16;5091675;28;20054;-30
2022/07/31 04:27:15;;;;;;;6.03;2.60;;;;;;;19.69;100.00;101543.16;5070245;28;20078;-30
2022/07/31 04:29:44;;;;;;;3.70;1.63;;;;;;;19.71;100.00;101544.47;5089451;28;20488;-36
2022/07/31 04:32:13;;;;;;;6.18;1.98;;;;;;;19.73;100.00;101542.13;5091573;28;20044;-32
2022/07/31 04:35:08;;;;;;;7.50;2.17;;;;;;;19.74;100.00;101543.78;5087928;28;20059;-33
2022/07/31 04:37:36;;;;;;;4.35;1.92;;;;;;;19.78;100.00;101546.75;5090399;28;20139;-42
2022/07/31 04:40:10;;;;;;;6.22;2.00;;;;;;;19.79;100.00;101549.22;5090176;28;20036;-35
2022/07/31 04:42:38;;;;;;;7.80;2.30;;;;;;;19.81;100.00;101549.69;5089430;28;20052;-37
2022/07/31 04:45:07;;;;;;;6.20;2.10;;;;;;;19.84;100.00;101553.84;5090883;28;20050;-39
2022/07/31 04:47:37;;;;;;;5.88;2.20;;;;;;;19.86;100.00;101551.50;5091336;28;20553;-30
2022/07/31 04:50:06;;;;;;;5.05;1.80;;;;;;;19.89;100.00;101548.00;5089263;28;20039;-32
2022/07/31 04:52:34;;;;;;;3.70;1.60;;;;;;;19.91;100.00;101548.47;5090312;28;20055;-32
2022/07/31 04:55:09;;;;;;;9.48;2.45;;;;;;;19.93;100.00;101538.47;5091221;28;20106;-32
2022/07/31 04:57:37;;;;;;;7.05;1.92;;;;;;;19.95;100.00;101544.59;5089608;28;20067;-35
2022/07/31 05:00:07;;;;;;;5.40;2.00;;;;;;;19.97;100.00;101549.09;5090189;28;20064;-34
2022/07/31 05:02:36;;;;;;;4.65;2.05;;;;;;;19.99;100.00;101543.88;5091416;28;20069;-32
2022/07/31 05:05:05;;;;;;;4.82;1.85;;;;;;;20.02;100.00;101546.03;5089955;28;20092;-38
2022/07/31 05:07:38;;;;;;;7.60;2.20;;;;;;;20.03;100.00;101533.53;5089888;28;20560;-34
2022/07/31 05:11:21;;;;;;;6.75;2.03;;;;;;;20.05;100.00;101532.00;5089230;28;20059;-31
2022/07/31 05:13:02;;;;;;;5.93;1.95;;;;;;;20.03;100.00;101534.34;5079318;28;20413;-36
2022/07/31 05:15:32;;;;;;;5.63;2.38;;;;;;;20.06;100.00;101535.66;5089823;28;20079;-32
2022/07/31 05:18:01;;;;;;;8.10;2.47;;;;;;;20.08;100.00;101533.31;5090365;28;20055;-31
2022/07/31 05:20:47;;;;;;;7.45;2.03;;;;;;;20.08;100.00;101534.16;5094530;28;20417;-39
2022/07/31 05:23:37;;;;;;;7.28;2.10;;;;;;;20.08;100.00;101541.81;5085171;28;20051;-32
2022/07/31 05:26:15;;;;;;;5.28;2.35;;;;;;;20.09;100.00;101532.16;5093528;28;20044;-31
2022/07/31 05:28:43;;;;;;;6.25;2.55;;;;;;;20.09;100.00;101535.81;5092766;28;20076;-32
2022/07/31 05:31:13;;;;;;;7.30;2.63;;;;;;;20.11;100.00;101533.47;5092930;28;20055;-32
2022/07/31 05:33:44;;;;;;;6.50;2.45;;;;;;;20.11;100.00;101524.97;5082666;28;20050;-30
2022/07/31 05:36:12;;;;;;;7.50;2.20;;;;;;;20.13;100.00;101531.13;5093203;28;20240;-31
2022/07/31 05:38:41;;;;;;;10.27;2.60;;;;;;;20.12;100.00;101537.97;5092703;28;20071;-34
2022/07/31 05:41:32;;;;;;;10.25;3.00;;;;;;;20.14;100.00;101529.09;5087319;28;20056;-36
2022/07/31 05:44:23;;;;;;;8.23;2.67;;;;;;;20.16;100.00;101533.25;5083141;28;20109;-33
2022/07/31 05:46:51;;;;;;;7.38;2.63;;;;;;;20.18;100.00;101530.06;5092160;28;20055;-35
2022/07/31 05:49:20;;;;;;;7.97;2.55;;;;;;;20.19;100.00;101528.88;5093003;28;20509;-32
2022/07/31 05:51:53;;;;;;;5.82;2.53;;;;;;;20.19;100.00;101538.19;5092299;28;20071;-31
2022/07/31 05:54:21;;;;;;;9.15;2.47;;;;;;;20.20;100.00;101525.69;5083021;28;20078;-34
2022/07/31 05:57:07;;;;;;;7.22;2.83;;;;;;;20.23;100.00;101519.31;5094497;28;20051;-32
2022/07/31 05:59:40;;;;;;;7.97;2.80;;;;;;;20.25;100.00;101522.66;5091927;28;20079;-39
2022/07/31 06:02:07;;;;;;;9.00;2.83;;;;;;;20.29;100.00;101514.28;5093057;28;20048;-32
2022/07/31 06:04:56;;;;;;;8.90;2.58;;;;;;;20.30;100.00;101522.44;5084836;28;20083;-36
2022/07/31 06:07:24;;;;;;;9.07;3.05;;;;;;;20.32;100.00;101519.25;5092124;28;20101;-32
2022/07/31 06:09:52;;;;;;;12.20;3.20;;;;;;;20.33;100.00;101515.25;5081599;28;20050;-31
2022/07/31 06:12:20;;;;;;;10.45;2.75;;;;;;;20.36;100.00;101519.38;5093688;28;20047;-33
2022/07/31 06:14:48;;;;;;;12.65;2.95;;;;;;;20.41;100.00;101513.50;5091935;28;20054;-31
2022/07/31 06:17:38;;;;;;;12.48;3.10;;;;;;;20.43;100.00;101511.16;5093588;28;20109;-32
2022/07/31 06:20:21;;;;;;;8.98;2.90;;;;;;;20.44;100.00;101515.66;5081329;28;20151;-34
2022/07/31 06:22:49;;;;;;;8.48;3.63;;;;;;;20.44;100.00;101515.66;5092368;28;20127;-32
2022/07/31 06:25:18;;;;;;;9.60;3.00;;;;;;;20.44;100.00;101515.66;5092726;28;20452;-32
2022/07/31 06:27:46;;;;;;;9.10;3.03;;;;;;;20.45;100.00;101522.97;5091573;28;20047;-30
2022/07/31 06:30:25;;;;;;;7.97;2.55;;;;;;;20.43;100.00;101522.50;5092368;28;20135;-32
2022/07/31 06:32:53;;;;;;;8.52;2.70;;;;;;;20.42;100.00;101512.34;5093430;28;20086;-33
2022/07/31 06:35:23;;;;;;;7.60;3.13;;;;;;;20.43;100.00;101514.81;5091142;28;20080;-31
2022/07/31 06:38:23;;;;;;;9.38;3.33;;;;;;;20.39;100.00;101515.88;5085329;28;20048;-36
2022/07/31 06:41:09;;;;;;;10.90;3.70;;;;;;;20.39;100.00;101513.03;5083542;28;20062;-32
2022/07/31 06:43:49;;;;;;;5.68;2.38;;;;;;;20.39;100.00;101510.19;5091862;28;20113;-31
2022/07/31 06:46:52;;;;;;;7.45;2.60;;;;;;;20.37;100.00;101512.56;5030827;28;20145;-30
2022/07/31 06:49:40;;;;;;;8.73;2.95;;;;;;;20.37;100.00;101515.41;5087506;28;20056;-33
2022/07/31 06:52:10;;;;;;;6.63;2.70;;;;;;;20.38;100.00;101514.22;5092039;28;20059;-39
2022/07/31 06:54:38;;;;;;;8.38;2.63;;;;;;;20.37;100.00;101526.75;5091992;28;20044;-36
2022/07/31 06:57:06;;;;;;;6.53;2.72;;;;;;;20.37;100.00;101523.91;5091012;28;20527;-36
2022/07/31 06:59:34;;;;;;;6.90;2.65;;;;;;;20.34;100.00;101527.41;5091645;28;20064;-31
2022/07/31 07:02:07;;;;;;;10.73;2.75;;;;;;;20.32;100.00;101532.59;5091809;28;20048;-32
2022/07/31 07:04:35;;;;;;;6.32;2.78;;;;;;;20.29;100.00;101517.13;5091494;28;20474;-36
2022/07/31 07:07:26;;;;;;;8.57;2.83;;;;;;;20.25;100.00;101521.81;5093097;28;20148;-36
2022/07/31 07:09:59;;;;;;;10.30;2.92;;;;;;;20.22;100.00;101519.69;5090785;28;20044;-32
2022/07/31 07:12:45;;;;;;;9.85;3.05;;;;;;;20.19;100.00;101521.19;5092724;28;20051;-31
2022/07/31 07:15:14;;;;;;;12.15;2.90;;;;;;;20.16;100.00;101516.25;5091670;28;20093;-36
2022/07/31 07:17:42;;;;;;;9.13;3.28;;;;;;;20.14;100.00;101510.09;5092160;28;20154;-39
2022/07/31 07:20:15;;;;;;;7.45;3.10;;;;;;;20.12;100.00;101520.13;5091217;28;20040;-34
2022/07/31 07:22:45;;;;;;;10.35;3.13;;;;;;;20.12;100.00;101515.28;5091394;28;20082;-33
2022/07/31 07:25:19;;;;;;;8.45;3.00;;;;;;;20.03;100.00;101506.03;5090735;28;20059;-33
2022/07/31 07:27:50;;;;;;;12.63;3.35;;;;;;;19.96;100.00;101508.59;5091053;28;20044;-35
2022/07/31 07:30:18;;;;;;;8.45;2.97;;;;;;;19.95;100.00;101506.94;5090759;28;20048;-35
2022/07/31 07:32:46;;;;;;;7.78;2.60;;;;;;;19.91;100.00;101508.81;5091497;28;20048;-36
2022/07/31 07:35:15;;;;;;;6.32;2.70;;;;;;;19.89;100.00;101506.31;5090687;28;20048;-32
2022/07/31 07:37:53;;;;;;;6.07;2.78;;;;;;;19.88;100.00;101496.16;5090565;28;20052;-33
2022/07/31 07:40:21;;;;;;;5.65;2.72;;;;;;;19.86;100.00;101495.69;5091471;28;20044;-32
2022/07/31 07:42:49;;;;;;;5.25;2.88;;;;;;;19.83;100.00;101498.38;5090624;28;20044;-40
2022/07/31 07:45:17;;;;;;;5.80;2.50;;;;;;;19.79;100.00;101494.56;5091953;28;20090;-34
2022/07/31 07:47:47;;;;;;;5.32;2.53;;;;;;;19.74;100.00;101494.81;5091406;28;20059;-31
2022/07/31 07:50:39;;;;;;;;;;;;;;;19.62;100.00;101489.88;5091152;28;20044;-35
2022/07/31 07:53:30;;;;;;;3.08;2.00;;;;;;;19.57;100.00;101487.28;5080925;28;19924;-36
2022/07/31 07:56:16;;;;;;;4.80;2.17;;;;;;;19.63;100.00;101488.72;5092353;28;20055;-39
2022/07/31 07:59:17;;;;;;;3.83;2.15;;;;;;;19.67;100.00;101486.03;5090699;28;20615;-34
2022/07/31 08:02:23;;;;;;;6.47;2.70;;;;;;;19.72;100.00;101485.81;5049856;28;20080;-33
2022/07/31 08:04:51;;;;;;;4.90;2.70;;;;;;;19.80;100.00;101482.06;5049773;28;20446;-33
2022/07/31 08:07:27;;;;;;;8.20;3.53;;;;;;;19.85;100.00;101479.88;5069182;28;20499;-32
2022/07/31 08:10:29;;;;;;;6.65;3.30;;;;;;;19.85;100.00;101484.69;5091136;28;20055;-32
2022/07/31 08:13:06;;;;;;;5.78;2.75;;;;;;;19.86;100.00;101481.53;5089883;28;20500;-41
2022/07/31 08:15:52;;;;;;;3.88;2.50;;;;;;;19.84;100.00;101474.53;5092761;28;20051;-33
2022/07/31 08:18:28;;;;;;;4.75;2.80;;;;;;;19.80;100.00;101477.25;5090555;28;20093;-40
2022/07/31 08:20:56;;;;;;;4.75;2.20;;;;;;;19.80;100.00;101473.56;5090185;28;20045;-32
2022/07/31 08:23:24;;;;;;;7.68;2.55;;;;;;;19.82;100.00;101472.06;5090374;28;20444;-32
2022/07/31 08:25:53;;;;;;;5.75;2.55;;;;;;;19.84;100.00;101474.53;5090825;28;20058;-34
2022/07/31 08:28:24;;;;;;;5.68;3.08;;;;;;;19.85;100.00;101476.19;5090112;28;20083;-37
2022/07/31 08:30:52;;;;;;;6.75;3.13;;;;;;;19.87;100.00;101471.03;5070666;28;20041;-38
2022/07/31 08:33:21;;;;;;;6.18;2.95;;;;;;;19.87;100.00;101469.00;5084551;28;20044;-36
2022/07/31 08:35:54;;;;;;;6.18;2.78;;;;;;;19.86;100.00;101460.88;5089730;28;20109;-38
2022/07/31 08:38:22;;;;;;;5.47;2.97;;;;;;;19.89;100.00;101471.50;5090417;28;20518;-31
2022/07/31 08:41:14;;;;;;;6.68;2.80;;;;;;;19.85;100.00;101477.03;5090553;28;20060;-31
2022/07/31 08:43:42;;;;;;;6.32;2.80;;;;;;;19.80;100.00;101467.91;5091460;28;20048;-33
2022/07/31 08:46:32;;;;;;;6.07;3.50;;;;;;;19.73;100.00;101470.50;5070085;28;20087;-32
2022/07/31 08:49:02;;;;;;;6.47;2.70;;;;;;;19.71;100.00;101478.50;5088508;28;20059;-36
2022/07/31 08:51:34;;;;;;;8.43;2.50;;;;;;;19.61;100.00;101476.91;5091041;28;20055;-37
2022/07/31 08:54:44;;;;;;;4.40;2.15;;;;;;;19.51;100.00;101464.00;5091634;28;20404;-33
2022/07/31 08:57:14;;;;;;;5.93;2.05;;;;;;;19.49;100.00;101471.97;5094538;28;20129;-31
2022/07/31 08:59:42;;;;;;;6.30;2.30;;;;;;;19.51;100.00;101469.66;5093270;28;20055;-41
2022/07/31 09:02:11;;;;;;;5.00;2.60;;;;;;;19.51;100.00;101471.66;5092454;28;20082;-34
2022/07/31 09:04:55;;;;;;;5.03;2.47;;;;;;;19.48;100.00;101461.00;5092817;28;20044;-40
2022/07/31 09:07:26;;;;;;;4.63;2.20;;;;;;;19.47;100.00;101462.16;5093310;28;20074;-39
2022/07/31 09:09:54;;;;;;;3.08;1.73;;;;;;;19.45;100.00;101465.34;5091714;28;20040;-35
2022/07/31 09:12:32;;;;;;;2.72;1.98;;;;;;;19.45;100.00;101456.84;5094616;28;20127;-38
2022/07/31 09:15:04;;;;;;;4.40;2.20;;;;;;;19.42;100.00;101466.03;5094347;28;20072;-33
2022/07/31 09:17:35;;;;;;;4.82;2.28;;;;;;;19.40;100.00;101453.38;5091987;28;20052;-36
2022/07/31 09:20:04;;;;;;;5.30;2.58;;;;;;;19.40;100.00;101467.53;5092855;28;20158;-34
2022/07/31 09:22:34;;;;;;;9.38;3.08;;;;;;;19.41;100.00;101455.88;5093087;28;20078;-31
2022/07/31 09:25:10;;;;;;;10.25;3.00;;;;;;;19.42;100.00;101451.88;5091622;28;20428;-30
2022/07/31 09:27:40;;;;;;;9.40;3.30;;;;;;;19.41;100.00;101450.22;5092715;28;20047;-39
2022/07/31 09:30:09;;;;;;;9.68;3.40;;;;;;;19.40;100.00;101456.22;5092921;28;20115;-34
2022/07/31 09:33:13;;;;;;;7.15;3.20;;;;;;;19.39;100.00;101452.56;5073479;28;20193;-30
2022/07/31 09:36:02;;;;;;;6.13;3.13;;;;;;;19.40;100.00;101459.88;5093564;28;20385;-30
2022/07/31 09:38:34;;;;;;;6.95;3.20;;;;;;;19.38;100.00;101461.41;5091684;28;20048;-31
2022/07/31 09:41:19;;;;;;;6.30;3.20;;;;;;;19.37;100.00;101456.94;5093465;28;20056;-30
2022/07/31 09:44:15;;;;;;;6.90;3.35;;;;;;;19.30;100.00;101460.31;5091734;28;20047;-38
2022/07/31 09:46:45;;;;;;;8.25;3.70;;;;;;;19.31;100.00;101464.78;5054676;28;1068075;-36
2022/07/31 09:49:13;;;;;;;6.47;2.92;;;;;;;19.32;100.00;101462.78;5093952;28;20058;-42
2022/07/31 09:51:47;;;;;;;5.28;3.20;;;;;;;19.37;100.00;101462.59;5093054;28;20048;-36
2022/07/31 09:54:23;;;;;;;6.38;3.28;;;;;;;19.37;100.00;101456.94;5093596;28;20051;-36
2022/07/31 09:57:10;;;;;;;5.78;2.90;;;;;;;19.37;100.00;101462.59;5094970;28;20052;-31
2022/07/31 09:59:43;;;;;;;5.20;2.92;;;;;;;19.37;100.00;101460.59;5093064;28;20083;-31
2022/07/31 10:02:14;;;;;;;3.55;2.63;;;;;;;19.40;100.00;101459.03;5089517;28;20130;-36
2022/07/31 10:04:48;;;;;;;4.22;2.60;;;;;;;19.43;100.00;101462.03;5093386;28;20056;-37
2022/07/31 10:07:17;;;;;;;4.10;2.88;;;;;;;19.49;100.00;101457.00;5091982;28;20048;-32
2022/07/31 10:10:03;;;;;;;4.75;2.35;;;;;;;19.55;100.00;101461.31;5092806;28;20040;-31
2022/07/31 10:12:55;;;;;;;5.93;2.90;;;;;;;19.59;100.00;101450.94;5093199;28;20054;-31
2022/07/31 10:15:26;;;;;;;5.15;3.00;;;;;;;19.66;100.00;101456.06;5094457;28;20382;-30
2022/07/31 10:18:13;;;;;;;3.53;3.13;;;;;;;19.67;100.00;101457.72;5083668;28;20062;-36
2022/07/31 10:21:04;;;;;;;5.15;2.90;;;;;;;19.70;100.00;101452.19;5051783;28;20086;-32
2022/07/31 10:23:52;;;;;;;4.88;2.90;;;;;;;19.74;100.00;101452.31;5094695;28;20054;-33
2022/07/31 10:26:21;;;;;;;7.45;3.58;;;;;;;19.80;100.00;101448.09;5092197;28;20052;-32
2022/07/31 10:29:09;;;;;;;5.07;2.72;;;;;;;19.82;100.00;101445.72;5093481;28;20044;-40
2022/07/31 10:31:38;;;;;;;5.28;3.30;;;;;;;19.85;100.00;101445.03;5092911;28;20050;-31
2022/07/31 10:34:06;;;;;;;5.50;3.00;;;;;;;19.85;100.00;101448.72;5092197;28;20055;-34
2022/07/31 10:36:48;;;;;;;8.23;4.03;;;;;;;19.82;100.00;101445.72;5093614;28;20404;-32
2022/07/31 10:39:39;;;;;;;7.57;3.45;;;;;;;19.83;100.00;101436.06;5091208;28;20048;-39
2022/07/31 10:42:33;;;;;;;11.02;4.18;;;;;;;19.83;100.00;101439.72;5091902;28;20123;-33
2022/07/31 10:45:06;;;;;;;10.50;4.43;;;;;;;19.81;100.00;101442.06;5092752;28;20408;-31
2022/07/31 10:47:56;;;;;;;10.98;4.00;;;;;;;19.82;100.00;101445.72;5091276;28;20083;-41
2022/07/31 10:50:43;;;;;;;6.88;3.40;;;;;;;19.81;100.00;101446.91;5074089;28;20508;-30
2022/07/31 10:53:24;;;;;;;9.43;3.05;;;;;;;19.82;100.00;101455.06;5089269;28;20052;-39
2022/07/31 10:56:20;;;;;;;6.22;2.95;;;;;;;19.85;100.00;101450.72;5092081;28;20052;-34
2022/07/31 10:59:06;;;;;;;4.88;2.70;;;;;;;19.87;100.00;101446.34;5092295;28;20071;-32
2022/07/31 11:02:02;;;;;;;5.40;2.80;;;;;;;19.97;100.00;101445.09;5091187;28;20044;-40
2022/07/31 11:04:43;;;;;;;7.78;3.20;;;;;;;20.04;100.00;101439.69;5081208;28;20048;-31
2022/07/31 11:07:27;;;;;;;4.65;2.70;;;;;;;20.09;100.00;101442.31;5090340;28;20139;-39
2022/07/31 11:10:19;;;;;;;5.55;2.78;;;;;;;20.16;100.00;101442.56;5076707;28;20063;-40
2022/07/31 11:13:04;;;;;;;6.93;2.78;;;;;;;20.25;100.00;101446.13;5093248;28;20136;-33
2022/07/31 11:15:46;;;;;;;8.30;3.35;;;;;;;20.28;100.00;101445.44;5091332;28;20071;-32
2022/07/31 11:18:32;;;;;;;7.85;3.75;;;;;;;20.32;100.00;101442.72;5092532;28;20051;-31
2022/07/31 11:21:07;;;;;;;10.57;3.80;;;;;;;20.29;100.00;101435.75;5093223;28;20048;-32
2022/07/31 11:24:00;;;;;;;11.18;3.90;;;;;;;20.25;100.00;101429.13;5092313;28;20044;-37
2022/07/31 11:26:32;;;;;;;10.30;3.83;;;;;;;20.21;100.00;101439.50;5092974;28;20505;-32
2022/07/31 11:29:10;;;;;;;10.02;3.80;;;;;;;20.23;100.00;101437.13;5092871;28;20476;-33
2022/07/31 11:32:00;;;;;;;8.05;3.40;;;;;;;20.27;100.00;101434.44;5072751;28;20041;-32
2022/07/31 11:34:27;;;;;;;12.75;4.25;;;;;;;20.32;100.00;101436.22;5087589;28;20052;-33
2022/07/31 11:36:57;;;;;;;10.60;4.00;;;;;;;20.35;100.00;101441.19;5092068;28;20577;-39
2022/07/31 11:39:27;;;;;;;8.18;3.80;;;;;;;20.36;100.00;101434.34;5092551;28;20039;-32
2022/07/31 11:42:04;;;;;;;9.77;4.53;;;;;;;20.36;100.00;101434.34;5092937;28;20129;-32
2022/07/31 11:44:35;;;;;;;10.45;4.30;;;;;;;20.36;100.00;101435.19;5091586;28;20048;-31
2022/07/31 11:47:02;;;;;;;13.63;4.53;;;;;;;20.37;100.00;101424.69;5092731;28;20481;-31
2022/07/31 11:50:00;;;;;;;10.43;4.10;;;;;;;20.43;100.00;101428.94;5092487;28;20062;-32
2022/07/31 11:52:29;;;;;;;14.63;3.92;;;;;;;20.40;100.00;101429.63;5091769;28;20396;-34